createdAt,value
2019-02-11T00:00:10.553Z,6.52
2019-02-11T00:01:10.301Z,6.52
2019-02-11T00:02:10.789Z,6.49
2019-02-11T00:03:10.280Z,6.52
2019-02-11T00:04:10.771Z,6.59
2019-02-11T00:05:10.785Z,6.51
2019-02-11T00:06:10.250Z,6.54
2019-02-11T00:07:10.240Z,6.6
2019-02-11T00:08:10.467Z,6.44
2019-02-11T00:09:10.235Z,6.45
2019-02-11T00:10:10.703Z,6.44
2019-02-11T00:11:10.460Z,6.45
2019-02-11T00:12:10.683Z,6.42
2019-02-11T00:13:15.658Z,6.45
2019-02-11T00:14:10.685Z,6.39
2019-02-11T00:15:10.172Z,6.41
2019-02-11T00:16:10.422Z,6.39
2019-02-11T00:17:10.403Z,6.24
2019-02-11T00:18:10.405Z,6.22
2019-02-11T00:19:11.063Z,6.24
2019-02-11T00:20:10.379Z,6.26
2019-02-11T00:21:10.358Z,6.28
2019-02-11T00:22:10.351Z,6.27
2019-02-11T00:23:10.351Z,6.3
2019-02-11T00:24:10.094Z,6.26
2019-02-11T00:25:10.320Z,6.33
2019-02-11T00:26:10.079Z,6.24
2019-02-11T00:27:10.314Z,6.27
2019-02-11T00:28:10.538Z,6.22
2019-02-11T00:29:10.544Z,6.2
2019-02-11T00:30:10.529Z,6.28
2019-02-11T00:31:10.541Z,6.17
2019-02-11T00:32:10.012Z,6.17
2019-02-11T00:33:10.002Z,6.2
2019-02-11T00:34:10.497Z,6.14
2019-02-11T00:35:10.246Z,6.14
2019-02-11T00:36:10.220Z,6.11
2019-02-11T00:37:10.214Z,6.16
2019-02-11T00:38:10.453Z,6.16
2019-02-11T00:39:10.442Z,6.14
2019-02-11T00:40:10.196Z,6.12
2019-02-11T00:41:09.924Z,6.11
2019-02-11T00:42:09.919Z,6.14
2019-02-11T00:43:09.928Z,6.11
2019-02-11T00:44:10.413Z,6.05
2019-02-11T00:45:10.137Z,5.99
2019-02-11T00:46:09.891Z,6.01
2019-02-11T00:47:10.123Z,5.93
2019-02-11T00:48:11.775Z,5.98
2019-02-11T00:49:09.852Z,5.98
2019-02-11T00:50:10.125Z,5.98
2019-02-11T00:51:10.084Z,5.93
2019-02-11T00:52:10.363Z,5.89
2019-02-11T00:53:10.318Z,5.83
2019-02-11T00:54:10.300Z,5.89
2019-02-11T00:55:10.305Z,5.86
2019-02-11T00:56:10.304Z,5.89
2019-02-11T00:57:10.277Z,5.89
2019-02-11T00:58:10.282Z,5.9
2019-02-11T00:59:10.263Z,5.84
2019-02-11T01:00:09.999Z,5.82
2019-02-11T01:01:10.001Z,5.76
2019-02-11T01:02:09.738Z,5.73
2019-02-11T01:03:09.979Z,5.76
2019-02-11T01:04:10.216Z,5.8
2019-02-11T01:05:09.706Z,5.72
2019-02-11T01:06:09.942Z,5.8
2019-02-11T01:07:10.221Z,5.73
2019-02-11T01:08:10.188Z,5.75
2019-02-11T01:09:09.972Z,5.68
2019-02-11T01:10:09.922Z,5.75
2019-02-11T01:11:10.164Z,5.69
2019-02-11T01:12:10.144Z,5.76
2019-02-11T01:13:09.904Z,5.82
2019-02-11T01:14:09.886Z,5.73
2019-02-11T01:15:10.113Z,5.72
2019-02-11T01:16:09.635Z,5.76
2019-02-11T01:17:10.109Z,5.76
2019-02-11T01:18:09.843Z,5.83
2019-02-11T01:19:09.815Z,5.8
2019-02-11T01:20:10.076Z,5.89
2019-02-11T01:21:09.806Z,5.87
2019-02-11T01:22:09.800Z,5.82
2019-02-11T01:23:09.795Z,5.91
2019-02-11T01:24:10.035Z,5.89
2019-02-11T01:25:09.777Z,5.91
2019-02-11T01:26:09.754Z,5.86
2019-02-11T01:27:09.515Z,5.91
2019-02-11T01:28:09.748Z,5.94
2019-02-11T01:29:09.731Z,5.91
2019-02-11T01:30:09.969Z,5.84
2019-02-11T01:31:09.460Z,5.94
2019-02-11T01:32:09.949Z,5.93
2019-02-11T01:33:09.950Z,5.89
2019-02-11T01:34:09.678Z,5.9
2019-02-11T01:35:09.684Z,5.89
2019-02-11T01:36:09.424Z,5.93
2019-02-11T01:37:09.651Z,5.84
2019-02-11T01:38:09.899Z,5.89
2019-02-11T01:39:09.885Z,5.93
2019-02-11T01:40:09.381Z,5.84
2019-02-11T01:41:09.875Z,5.93
2019-02-11T01:42:09.356Z,5.91
2019-02-11T01:43:09.850Z,5.94
2019-02-11T01:44:09.851Z,5.98
2019-02-11T01:45:09.590Z,5.94
2019-02-11T01:46:09.578Z,5.98
2019-02-11T01:47:09.815Z,5.98
2019-02-11T01:48:09.798Z,6.08
2019-02-11T01:49:09.541Z,6.07
2019-02-11T01:50:09.549Z,6.08
2019-02-11T01:51:09.770Z,6.14
2019-02-11T01:52:09.769Z,6.07
2019-02-11T01:53:09.516Z,6.07
2019-02-11T01:54:09.762Z,6.02
2019-02-11T01:55:09.741Z,6.08
2019-02-11T01:56:09.800Z,6.07
2019-02-11T01:57:09.470Z,6.07
2019-02-11T01:58:09.711Z,6.08
2019-02-11T01:59:09.457Z,6.17
2019-02-11T02:00:09.689Z,6.05
2019-02-11T02:01:09.680Z,6.12
2019-02-11T02:02:09.671Z,6.08
2019-02-11T02:03:09.680Z,6.04
2019-02-11T02:04:09.654Z,6.07
2019-02-11T02:05:09.666Z,6.09
2019-02-11T02:06:09.645Z,6.14
2019-02-11T02:07:09.636Z,6.14
2019-02-11T02:08:09.121Z,6.14
2019-02-11T02:09:09.364Z,6.12
2019-02-11T02:10:09.609Z,6.12
2019-02-11T02:11:09.590Z,6.19
2019-02-11T02:12:09.587Z,6.19
2019-02-11T02:13:09.573Z,6.16
2019-02-11T02:14:09.558Z,6.19
2019-02-11T02:15:09.591Z,6.24
2019-02-11T02:16:09.564Z,6.11
2019-02-11T02:17:09.306Z,6.11
2019-02-11T02:18:09.286Z,6.22
2019-02-11T02:19:09.515Z,6.11
2019-02-11T02:20:09.521Z,6.19
2019-02-11T02:21:09.252Z,6.08
2019-02-11T02:22:09.491Z,6.14
2019-02-11T02:23:09.480Z,6.19
2019-02-11T02:24:09.477Z,6.14
2019-02-11T02:25:09.474Z,6.12
2019-02-11T02:26:09.225Z,6.19
2019-02-11T02:27:09.218Z,6.22
2019-02-11T02:28:09.199Z,6.2
2019-02-11T02:29:09.449Z,6.14
2019-02-11T02:30:09.218Z,6.12
2019-02-11T02:31:09.427Z,6.12
2019-02-11T02:32:09.443Z,6.14
2019-02-11T02:33:09.423Z,6.19
2019-02-11T02:34:08.887Z,6.17
2019-02-11T02:35:09.133Z,6.11
2019-02-11T02:36:09.124Z,6.17
2019-02-11T02:37:09.120Z,6.2
2019-02-11T02:38:09.347Z,6.2
2019-02-11T02:39:09.343Z,6.17
2019-02-11T02:40:09.341Z,6.17
2019-02-11T02:41:09.077Z,6.19
2019-02-11T02:42:09.315Z,6.16
2019-02-11T02:43:09.066Z,6.26
2019-02-11T02:44:09.040Z,6.19
2019-02-11T02:45:09.046Z,6.3
2019-02-11T02:46:09.032Z,6.26
2019-02-11T02:47:08.771Z,6.2
2019-02-11T02:48:09.015Z,6.26
2019-02-11T02:49:09.262Z,6.22
2019-02-11T02:50:09.004Z,6.24
2019-02-11T02:51:08.991Z,6.3
2019-02-11T02:52:08.986Z,6.27
2019-02-11T02:53:09.079Z,6.24
2019-02-11T02:54:08.712Z,6.36
2019-02-11T02:55:08.958Z,6.2
2019-02-11T02:56:08.961Z,6.28
2019-02-11T02:57:08.711Z,6.26
2019-02-11T02:58:09.183Z,6.24
2019-02-11T02:59:08.922Z,6.2
2019-02-11T03:00:09.160Z,6.24
2019-02-11T03:01:09.138Z,6.24
2019-02-11T03:02:09.137Z,6.27
2019-02-11T03:03:09.117Z,6.3
2019-02-11T03:04:08.865Z,6.22
2019-02-11T03:05:09.100Z,6.26
2019-02-11T03:06:08.619Z,6.22
2019-02-11T03:07:09.089Z,6.26
2019-02-11T03:08:09.088Z,6.27
2019-02-11T03:09:09.086Z,6.26
2019-02-11T03:10:08.833Z,6.3
2019-02-11T03:11:08.558Z,6.22
2019-02-11T03:12:09.041Z,6.22
2019-02-11T03:13:10.080Z,6.2
2019-02-11T03:14:11.011Z,6.14
2019-02-11T03:15:09.039Z,6.07
2019-02-11T03:16:09.026Z,6.02
2019-02-11T03:17:09.005Z,5.98
2019-02-11T03:18:08.999Z,5.93
2019-02-11T03:19:08.746Z,5.97
2019-02-11T03:20:08.968Z,6.02
2019-02-11T03:21:08.716Z,5.91
2019-02-11T03:22:08.710Z,5.93
2019-02-11T03:23:08.693Z,5.86
2019-02-11T03:24:08.438Z,5.64
2019-02-11T03:25:08.684Z,5.64
2019-02-11T03:26:08.425Z,5.47
2019-02-11T03:27:08.730Z,5.43
2019-02-11T03:28:08.912Z,5.44
2019-02-11T03:29:08.905Z,5.3
2019-02-11T03:30:08.921Z,5.18
2019-02-11T03:31:08.897Z,5.1
2019-02-11T03:32:08.882Z,5.08
2019-02-11T03:33:08.378Z,5.05
2019-02-11T03:34:08.860Z,5.02
2019-02-11T03:35:08.585Z,4.75
2019-02-11T03:36:08.578Z,4.84
2019-02-11T03:37:08.839Z,4.86
2019-02-11T03:38:08.312Z,4.7
2019-02-11T03:39:08.537Z,4.67
2019-02-11T03:40:08.531Z,4.63
2019-02-11T03:41:08.768Z,4.68
2019-02-11T03:42:08.757Z,4.58
2019-02-11T03:43:08.747Z,4.55
2019-02-11T03:44:17.105Z,4.63
2019-02-11T03:45:08.486Z,4.66
2019-02-11T03:46:08.736Z,4.66
2019-02-11T03:47:08.470Z,4.68
2019-02-11T03:48:08.708Z,4.66
2019-02-11T03:49:08.457Z,4.75
2019-02-11T03:50:10.044Z,4.7
2019-02-11T03:51:08.421Z,4.75
2019-02-11T03:52:08.412Z,4.78
2019-02-11T03:53:08.412Z,4.77
2019-02-11T03:54:08.157Z,4.71
2019-02-11T03:55:08.648Z,4.8
2019-02-11T03:56:08.669Z,4.77
2019-02-11T03:57:08.624Z,4.77
2019-02-11T03:58:08.601Z,4.74
2019-02-11T03:59:08.359Z,4.75
2019-02-11T04:00:08.594Z,4.75
2019-02-11T04:01:08.333Z,4.78
2019-02-11T04:02:08.330Z,4.77
2019-02-11T04:03:08.568Z,4.7
2019-02-11T04:04:08.562Z,4.75
2019-02-11T04:05:08.287Z,4.75
2019-02-11T04:06:08.542Z,4.82
2019-02-11T04:07:08.512Z,4.8
2019-02-11T04:08:08.265Z,4.75
2019-02-11T04:09:08.541Z,4.75
2019-02-11T04:10:08.245Z,4.8
2019-02-11T04:11:07.989Z,4.75
2019-02-11T04:12:08.219Z,4.75
2019-02-11T04:13:07.953Z,4.82
2019-02-11T04:14:07.944Z,4.7
2019-02-11T04:15:08.442Z,4.7
2019-02-11T04:16:08.187Z,4.66
2019-02-11T04:17:08.182Z,4.62
2019-02-11T04:18:08.173Z,4.6
2019-02-11T04:19:07.909Z,4.59
2019-02-11T04:20:08.426Z,4.59
2019-02-11T04:21:08.377Z,4.62
2019-02-11T04:22:08.364Z,4.66
2019-02-11T04:23:08.120Z,4.56
2019-02-11T04:24:08.105Z,4.6
2019-02-11T04:25:08.111Z,4.67
2019-02-11T04:26:08.353Z,4.63
2019-02-11T04:27:08.088Z,4.74
2019-02-11T04:28:08.071Z,4.7
2019-02-11T04:29:08.090Z,4.66
2019-02-11T04:30:07.826Z,4.66
2019-02-11T04:31:08.040Z,4.75
2019-02-11T04:32:08.287Z,4.68
2019-02-11T04:33:08.011Z,4.7
2019-02-11T04:34:08.249Z,4.8
2019-02-11T04:35:08.003Z,4.8
2019-02-11T04:36:08.251Z,4.71
2019-02-11T04:37:08.259Z,4.8
2019-02-11T04:38:08.208Z,4.82
2019-02-11T04:39:08.194Z,4.86
2019-02-11T04:40:08.221Z,4.9
2019-02-11T04:41:07.674Z,4.82
2019-02-11T04:42:08.169Z,4.94
2019-02-11T04:43:08.187Z,4.92
2019-02-11T04:44:07.909Z,4.97
2019-02-11T04:45:08.144Z,5
2019-02-11T04:46:08.132Z,5
2019-02-11T04:47:08.116Z,4.97
2019-02-11T04:48:07.618Z,4.99
2019-02-11T04:49:08.135Z,5.08
2019-02-11T04:50:08.133Z,5.08
2019-02-11T04:51:07.588Z,5.1
2019-02-11T04:52:08.082Z,5.14
2019-02-11T04:53:07.820Z,5.14
2019-02-11T04:54:07.820Z,5.12
2019-02-11T04:55:08.043Z,5.11
2019-02-11T04:56:08.049Z,5.3
2019-02-11T04:57:08.034Z,5.28
2019-02-11T04:58:07.765Z,5.23
2019-02-11T04:59:07.992Z,5.28
2019-02-11T05:00:08.001Z,5.25
2019-02-11T05:01:07.731Z,5.25
2019-02-11T05:02:07.496Z,5.29
2019-02-11T05:03:07.711Z,5.29
2019-02-11T05:04:07.749Z,5.32
2019-02-11T05:05:07.967Z,5.25
2019-02-11T05:06:07.426Z,5.11
2019-02-11T05:07:07.698Z,5.23
2019-02-11T05:08:07.933Z,5.17
2019-02-11T05:09:07.901Z,5.14
2019-02-11T05:10:07.395Z,5.11
2019-02-11T05:11:07.918Z,5.07
2019-02-11T05:12:07.864Z,5.1
2019-02-11T05:13:07.852Z,5.11
2019-02-11T05:14:07.591Z,5.04
2019-02-11T05:15:07.606Z,4.97
2019-02-11T05:16:07.576Z,5.04
2019-02-11T05:17:07.576Z,5.04
2019-02-11T05:18:07.905Z,4.99
2019-02-11T05:19:07.809Z,5.02
2019-02-11T05:20:07.821Z,5
2019-02-11T05:21:07.548Z,4.96
2019-02-11T05:22:07.798Z,4.99
2019-02-11T05:23:07.786Z,4.99
2019-02-11T05:24:07.754Z,5.02
2019-02-11T05:25:07.758Z,4.89
2019-02-11T05:26:07.233Z,4.93
2019-02-11T05:27:07.487Z,4.96
2019-02-11T05:28:07.714Z,4.96
2019-02-11T05:29:07.454Z,4.89
2019-02-11T05:30:07.438Z,4.93
2019-02-11T05:31:07.684Z,4.8
2019-02-11T05:32:07.686Z,4.96
2019-02-11T05:33:07.741Z,4.84
2019-02-11T05:34:07.659Z,4.96
2019-02-11T05:35:07.417Z,4.86
2019-02-11T05:36:07.405Z,4.92
2019-02-11T05:37:07.628Z,4.93
2019-02-11T05:38:07.611Z,4.78
2019-02-11T05:39:07.600Z,4.97
2019-02-11T05:40:07.337Z,4.99
2019-02-11T05:41:07.320Z,4.9
2019-02-11T05:42:07.329Z,4.94
2019-02-11T05:43:07.308Z,4.87
2019-02-11T05:44:08.367Z,4.97
2019-02-11T05:45:07.560Z,4.96
2019-02-11T05:46:07.311Z,4.94
2019-02-11T05:47:07.287Z,4.97
2019-02-11T05:48:07.260Z,5.05
2019-02-11T05:49:07.487Z,5.05
2019-02-11T05:50:07.485Z,5.11
2019-02-11T05:51:07.234Z,5.08
2019-02-11T05:52:07.217Z,5.05
2019-02-11T05:53:07.494Z,5.12
2019-02-11T05:54:07.205Z,5.17
2019-02-11T05:55:07.213Z,5.14
2019-02-11T05:56:07.445Z,5.29
2019-02-11T05:57:07.422Z,5.25
2019-02-11T05:58:07.175Z,5.25
2019-02-11T05:59:07.152Z,5.36
2019-02-11T06:00:07.273Z,5.32
2019-02-11T06:01:07.389Z,5.36
2019-02-11T06:02:07.368Z,5.36
2019-02-11T06:03:09.402Z,5.39
2019-02-11T06:04:07.358Z,5.41
2019-02-11T06:05:07.094Z,5.39
2019-02-11T06:06:07.375Z,5.41
2019-02-11T06:07:07.318Z,5.43
2019-02-11T06:08:07.053Z,5.39
2019-02-11T06:09:07.045Z,5.36
2019-02-11T06:10:07.047Z,5.39
2019-02-11T06:11:07.292Z,5.38
2019-02-11T06:12:07.017Z,5.38
2019-02-11T06:13:07.006Z,5.47
2019-02-11T06:14:07.242Z,5.38
2019-02-11T06:15:09.418Z,5.53
2019-02-11T06:16:06.969Z,5.47
2019-02-11T06:17:06.957Z,5.44
2019-02-11T06:18:06.704Z,5.53
2019-02-11T06:19:07.194Z,5.43
2019-02-11T06:20:07.181Z,5.44
2019-02-11T06:21:06.928Z,5.48
2019-02-11T06:22:06.662Z,5.47
2019-02-11T06:23:06.675Z,5.53
2019-02-11T06:24:06.894Z,5.47
2019-02-11T06:25:07.266Z,5.46
2019-02-11T06:26:06.892Z,5.48
2019-02-11T06:27:07.105Z,5.48
2019-02-11T06:28:06.609Z,5.43
2019-02-11T06:29:06.856Z,5.51
2019-02-11T06:30:06.848Z,5.54
2019-02-11T06:31:07.087Z,5.54
2019-02-11T06:32:06.826Z,5.51
2019-02-11T06:33:07.077Z,5.57
2019-02-11T06:34:07.048Z,5.57
2019-02-11T06:35:07.041Z,5.51
2019-02-11T06:36:16.633Z,5.54
2019-02-11T06:37:07.031Z,5.51
2019-02-11T06:38:06.771Z,5.53
2019-02-11T06:39:07.005Z,5.54
2019-02-11T06:40:06.756Z,5.47
2019-02-11T06:41:06.737Z,5.61
2019-02-11T06:42:06.973Z,5.61
2019-02-11T06:43:06.748Z,5.62
2019-02-11T06:44:06.726Z,5.57
2019-02-11T06:45:15.209Z,5.65
2019-02-11T06:46:06.727Z,5.59
2019-02-11T06:47:06.670Z,5.62
2019-02-11T06:48:06.686Z,5.66
2019-02-11T06:49:06.657Z,5.68
2019-02-11T06:50:06.664Z,5.72
2019-02-11T06:51:06.391Z,5.62
2019-02-11T06:52:06.891Z,5.66
2019-02-11T06:53:06.872Z,5.62
2019-02-11T06:54:06.363Z,5.59
2019-02-11T06:55:06.603Z,5.62
2019-02-11T06:56:06.381Z,5.56
2019-02-11T06:57:06.841Z,5.57
2019-02-11T06:58:06.835Z,5.54
2019-02-11T06:59:06.578Z,5.54
2019-02-11T07:00:06.552Z,5.5
2019-02-11T07:01:06.793Z,5.54
2019-02-11T07:02:06.783Z,5.46
2019-02-11T07:03:06.783Z,5.53
2019-02-11T07:04:06.736Z,5.56
2019-02-11T07:05:06.755Z,5.59
2019-02-11T07:06:06.240Z,5.61
2019-02-11T07:07:06.227Z,5.48
2019-02-11T07:08:07.941Z,5.5
2019-02-11T07:09:06.459Z,5.44
2019-02-11T07:10:06.245Z,5.48
2019-02-11T07:11:06.466Z,5.5
2019-02-11T07:12:06.445Z,5.43
2019-02-11T07:13:06.427Z,5.35
2019-02-11T07:14:06.673Z,5.35
2019-02-11T07:15:06.411Z,5.36
2019-02-11T07:16:06.685Z,5.35
2019-02-11T07:17:06.655Z,5.25
2019-02-11T07:18:06.628Z,5.29
2019-02-11T07:19:06.621Z,5.29
2019-02-11T07:20:06.618Z,5.29
2019-02-11T07:21:06.609Z,5.23
2019-02-11T07:22:06.345Z,5.32
2019-02-11T07:23:06.596Z,5.28
2019-02-11T07:24:06.574Z,5.25
2019-02-11T07:25:06.555Z,5.28
2019-02-11T07:26:06.305Z,5.29
2019-02-11T07:27:06.550Z,5.3
2019-02-11T07:28:06.269Z,5.21
2019-02-11T07:29:06.517Z,5.29
2019-02-11T07:30:06.544Z,5.25
2019-02-11T07:31:06.499Z,5.2
2019-02-11T07:32:06.508Z,5.29
2019-02-11T07:33:06.476Z,5.29
2019-02-11T07:34:05.974Z,5.32
2019-02-11T07:35:06.225Z,5.41
2019-02-11T07:36:06.443Z,5.39
2019-02-11T07:37:05.954Z,5.43
2019-02-11T07:38:06.178Z,5.36
2019-02-11T07:39:06.179Z,5.5
2019-02-11T07:40:06.186Z,5.47
2019-02-11T07:41:06.171Z,5.54
2019-02-11T07:42:07.208Z,5.48
2019-02-11T07:43:06.385Z,5.47
2019-02-11T07:44:06.364Z,5.44
2019-02-11T07:45:06.112Z,5.51
2019-02-11T07:46:06.104Z,5.48
2019-02-11T07:47:06.122Z,5.48
2019-02-11T07:48:06.095Z,5.47
2019-02-11T07:49:06.329Z,5.5
2019-02-11T07:50:06.083Z,5.61
2019-02-11T07:51:06.306Z,5.48
2019-02-11T07:52:06.056Z,5.57
2019-02-11T07:53:06.036Z,5.47
2019-02-11T07:54:06.035Z,5.44
2019-02-11T07:55:06.026Z,5.57
2019-02-11T07:56:06.012Z,5.62
2019-02-11T07:57:06.251Z,5.61
2019-02-11T07:58:06.233Z,5.56
2019-02-11T07:59:06.236Z,5.59
2019-02-11T08:00:05.992Z,5.66
2019-02-11T08:01:06.222Z,5.61
2019-02-11T08:02:06.219Z,5.72
2019-02-11T08:03:06.203Z,5.68
2019-02-11T08:04:06.179Z,5.71
2019-02-11T08:05:06.230Z,5.71
2019-02-11T08:06:06.183Z,5.72
2019-02-11T08:07:06.148Z,5.82
2019-02-11T08:08:05.897Z,5.76
2019-02-11T08:09:06.130Z,5.76
2019-02-11T08:10:05.878Z,5.75
2019-02-11T08:11:05.877Z,5.82
2019-02-11T08:12:06.107Z,5.86
2019-02-11T08:13:06.127Z,5.84
2019-02-11T08:14:06.094Z,5.73
2019-02-11T08:15:06.089Z,5.76
2019-02-11T08:16:05.828Z,5.89
2019-02-11T08:17:06.075Z,5.8
2019-02-11T08:18:05.849Z,5.93
2019-02-11T08:19:05.796Z,5.97
2019-02-11T08:20:05.876Z,5.91
2019-02-11T08:21:06.027Z,5.87
2019-02-11T08:22:06.019Z,5.91
2019-02-11T08:23:13.986Z,5.94
2019-02-11T08:24:05.997Z,5.97
2019-02-11T08:25:05.772Z,5.98
2019-02-11T08:26:06.259Z,5.91
2019-02-11T08:27:05.975Z,5.91
2019-02-11T08:28:05.736Z,5.91
2019-02-11T08:29:05.971Z,5.89
2019-02-11T08:30:05.701Z,5.97
2019-02-11T08:31:05.931Z,6.02
2019-02-11T08:32:05.931Z,6.01
2019-02-11T08:33:05.676Z,5.91
2019-02-11T08:34:05.668Z,5.98
2019-02-11T08:35:05.898Z,5.89
2019-02-11T08:36:05.900Z,5.91
2019-02-11T08:37:05.891Z,5.98
2019-02-11T08:38:05.402Z,5.93
2019-02-11T08:39:06.774Z,5.98
2019-02-11T08:40:05.615Z,6.01
2019-02-11T08:41:05.849Z,6.02
2019-02-11T08:42:05.352Z,6.01
2019-02-11T08:43:05.586Z,6.09
2019-02-11T08:44:05.837Z,6.09
2019-02-11T08:45:05.826Z,6.16
2019-02-11T08:46:05.565Z,6.11
2019-02-11T08:47:05.794Z,6.19
2019-02-11T08:48:05.788Z,6.12
2019-02-11T08:49:05.912Z,6.14
2019-02-11T08:50:05.836Z,6.2
2019-02-11T08:51:05.766Z,6.24
2019-02-11T08:52:05.518Z,6.17
2019-02-11T08:53:05.499Z,6.17
2019-02-11T08:54:05.735Z,6.24
2019-02-11T08:55:05.739Z,6.11
2019-02-11T08:56:05.928Z,6.24
2019-02-11T08:57:05.450Z,6.33
2019-02-11T08:58:05.490Z,6.24
2019-02-11T08:59:05.696Z,6.19
2019-02-11T09:00:05.440Z,6.28
2019-02-11T09:01:05.173Z,6.24
2019-02-11T09:02:05.420Z,6.2
2019-02-11T09:03:05.406Z,6.39
2019-02-11T09:04:05.406Z,6.31
2019-02-11T09:05:05.651Z,6.41
2019-02-11T09:06:05.160Z,6.39
2019-02-11T09:07:05.614Z,6.36
2019-02-11T09:08:05.570Z,6.36
2019-02-11T09:09:05.613Z,6.41
2019-02-11T09:10:05.602Z,6.38
2019-02-11T09:11:05.590Z,6.35
2019-02-11T09:12:05.337Z,6.38
2019-02-11T09:13:05.321Z,6.3
2019-02-11T09:14:05.313Z,6.41
2019-02-11T09:15:05.076Z,6.35
2019-02-11T09:16:05.299Z,6.33
2019-02-11T09:17:12.728Z,6.44
2019-02-11T09:18:05.025Z,6.42
2019-02-11T09:19:05.542Z,6.44
2019-02-11T09:20:05.026Z,6.38
2019-02-11T09:21:05.500Z,6.41
2019-02-11T09:22:12.160Z,6.51
2019-02-11T09:23:05.479Z,6.48
2019-02-11T09:24:05.218Z,6.46
2019-02-11T09:25:05.216Z,6.52
2019-02-11T09:26:05.220Z,6.56
2019-02-11T09:27:05.210Z,6.46
2019-02-11T09:28:05.443Z,6.57
2019-02-11T09:29:05.766Z,6.57
2019-02-11T09:30:05.185Z,6.45
2019-02-11T09:31:05.432Z,6.48
2019-02-11T09:32:05.404Z,6.57
2019-02-11T09:33:04.912Z,6.56
2019-02-11T09:34:05.151Z,6.51
2019-02-11T09:35:05.154Z,6.54
2019-02-11T09:36:05.662Z,6.49
2019-02-11T09:37:05.136Z,6.56
2019-02-11T09:38:05.113Z,6.49
2019-02-11T09:39:05.099Z,6.46
2019-02-11T09:40:05.354Z,6.52
2019-02-11T09:41:05.094Z,6.51
2019-02-11T09:42:04.829Z,6.49
2019-02-11T09:43:05.336Z,6.63
2019-02-11T09:44:05.322Z,6.52
2019-02-11T09:45:05.043Z,6.57
2019-02-11T09:46:08.625Z,6.6
2019-02-11T09:47:05.028Z,6.6
2019-02-11T09:48:05.294Z,6.6
2019-02-11T09:49:05.274Z,6.63
2019-02-11T09:50:05.266Z,6.64
2019-02-11T09:51:05.255Z,6.64
2019-02-11T09:52:05.264Z,6.72
2019-02-11T09:53:05.231Z,6.79
2019-02-11T09:54:04.983Z,6.77
2019-02-11T09:55:05.015Z,6.88
2019-02-11T09:56:04.967Z,6.88
2019-02-11T09:57:05.199Z,6.95
2019-02-11T09:58:04.937Z,6.95
2019-02-11T09:59:05.198Z,7.02
2019-02-11T10:00:04.927Z,7.05
2019-02-11T10:01:05.169Z,7.07
2019-02-11T10:02:04.903Z,7.11
2019-02-11T10:03:05.169Z,7.05
2019-02-11T10:04:04.892Z,7.07
2019-02-11T10:05:04.900Z,7.11
2019-02-11T10:06:05.124Z,7.15
2019-02-11T10:07:05.131Z,7.17
2019-02-11T10:08:04.870Z,7.31
2019-02-11T10:09:04.898Z,7.28
2019-02-11T10:10:04.598Z,7.28
2019-02-11T10:11:04.841Z,7.45
2019-02-11T10:12:04.837Z,7.48
2019-02-11T10:13:04.826Z,7.57
2019-02-11T10:14:05.062Z,7.36
2019-02-11T10:15:04.576Z,7.32
2019-02-11T10:16:12.235Z,7.25
2019-02-11T10:17:04.791Z,7.32
2019-02-11T10:18:05.037Z,7.25
2019-02-11T10:19:05.035Z,7.32
2019-02-11T10:20:05.116Z,7.31
2019-02-11T10:21:04.528Z,7.31
2019-02-11T10:22:05.007Z,7.32
2019-02-11T10:23:04.762Z,7.35
2019-02-11T10:24:04.739Z,7.31
2019-02-11T10:25:04.783Z,7.38
2019-02-11T10:26:04.742Z,7.38
2019-02-11T10:27:04.982Z,7.39
2019-02-11T10:28:04.721Z,7.42
2019-02-11T10:29:05.000Z,7.51
2019-02-11T10:30:04.792Z,7.51
2019-02-11T10:31:04.957Z,7.47
2019-02-11T10:32:04.693Z,7.48
2019-02-11T10:33:04.919Z,7.57
2019-02-11T10:34:04.701Z,7.56
2019-02-11T10:35:04.520Z,7.67
2019-02-11T10:36:04.669Z,7.69
2019-02-11T10:37:04.680Z,7.72
2019-02-11T10:38:04.654Z,7.73
2019-02-11T10:39:04.659Z,7.66
2019-02-11T10:40:04.964Z,7.51
2019-02-11T10:41:04.875Z,7.43
2019-02-11T10:42:04.469Z,7.38
2019-02-11T10:43:04.878Z,7.39
2019-02-11T10:44:04.848Z,7.35
2019-02-11T10:45:04.458Z,7.38
2019-02-11T10:46:04.842Z,7.38
2019-02-11T10:47:04.337Z,7.39
2019-02-11T10:48:04.347Z,7.38
2019-02-11T10:49:04.829Z,7.35
2019-02-11T10:50:04.735Z,7.35
2019-02-11T10:51:04.551Z,7.35
2019-02-11T10:52:04.598Z,7.36
2019-02-11T10:53:04.658Z,7.38
2019-02-11T10:54:04.791Z,7.4
2019-02-11T10:55:04.803Z,7.53
2019-02-11T10:56:04.770Z,7.67
2019-02-11T10:57:04.521Z,7.56
2019-02-11T10:58:04.520Z,7.54
2019-02-11T10:59:04.549Z,7.48
2019-02-11T11:00:04.738Z,7.5
2019-02-11T11:01:04.717Z,7.48
2019-02-11T11:02:04.478Z,7.57
2019-02-11T11:03:04.478Z,7.47
2019-02-11T11:04:04.464Z,7.58
2019-02-11T11:05:04.711Z,7.6
2019-02-11T11:06:04.198Z,7.7
2019-02-11T11:07:04.201Z,7.69
2019-02-11T11:08:04.422Z,7.58
2019-02-11T11:09:04.715Z,7.57
2019-02-11T11:10:04.415Z,7.53
2019-02-11T11:11:04.174Z,7.48
2019-02-11T11:12:04.420Z,7.5
2019-02-11T11:13:04.403Z,7.56
2019-02-11T11:14:04.154Z,7.6
2019-02-11T11:15:04.640Z,7.79
2019-02-11T11:16:04.125Z,7.97
2019-02-11T11:17:04.129Z,7.91
2019-02-11T11:18:04.614Z,8
2019-02-11T11:19:04.147Z,7.98
2019-02-11T11:20:04.619Z,7.94
2019-02-11T11:21:04.602Z,7.94
2019-02-11T11:22:04.385Z,7.8
2019-02-11T11:23:04.605Z,7.6
2019-02-11T11:24:04.577Z,7.63
2019-02-11T11:25:04.555Z,7.51
2019-02-11T11:26:04.301Z,7.43
2019-02-11T11:27:04.542Z,7.53
2019-02-11T11:28:04.542Z,7.57
2019-02-11T11:29:05.929Z,7.45
2019-02-11T11:30:04.538Z,7.43
2019-02-11T11:31:04.522Z,7.47
2019-02-11T11:32:04.515Z,7.5
2019-02-11T11:33:04.500Z,7.42
2019-02-11T11:34:04.493Z,7.38
2019-02-11T11:35:04.247Z,7.38
2019-02-11T11:36:04.494Z,7.29
2019-02-11T11:37:04.480Z,7.29
2019-02-11T11:38:03.968Z,7.24
2019-02-11T11:39:04.218Z,7.21
2019-02-11T11:40:04.476Z,7.23
2019-02-11T11:41:04.453Z,7.23
2019-02-11T11:42:04.213Z,7.29
2019-02-11T11:43:04.207Z,7.29
2019-02-11T11:44:04.427Z,7.32
2019-02-11T11:45:04.416Z,7.45
2019-02-11T11:46:04.174Z,7.4
2019-02-11T11:47:04.413Z,7.38
2019-02-11T11:48:03.896Z,7.45
2019-02-11T11:49:04.224Z,7.5
2019-02-11T11:50:04.386Z,7.61
2019-02-11T11:51:04.125Z,7.58
2019-02-11T11:52:04.435Z,7.7
2019-02-11T11:53:04.354Z,7.75
2019-02-11T11:54:04.117Z,7.77
2019-02-11T11:55:04.132Z,7.79
2019-02-11T11:56:07.296Z,7.75
2019-02-11T11:57:04.209Z,7.73
2019-02-11T11:58:04.395Z,7.69
2019-02-11T11:59:04.362Z,7.67
2019-02-11T12:00:04.383Z,7.61
2019-02-11T12:01:04.351Z,7.67
2019-02-11T12:02:04.085Z,7.58
2019-02-11T12:03:09.063Z,7.58
2019-02-11T12:04:08.210Z,7.54
2019-02-11T12:05:03.815Z,7.58
2019-02-11T12:06:04.043Z,7.6
2019-02-11T12:07:04.300Z,7.51
2019-02-11T12:08:04.376Z,7.51
2019-02-11T12:09:04.545Z,7.58
2019-02-11T12:10:04.319Z,7.57
2019-02-11T12:11:04.291Z,7.7
2019-02-11T12:12:04.309Z,7.57
2019-02-11T12:13:24.332Z,7.53
2019-02-11T12:14:04.299Z,7.51
2019-02-11T12:15:04.426Z,7.4
2019-02-11T12:16:04.230Z,7.36
2019-02-11T12:17:07.660Z,7.42
2019-02-11T12:18:03.987Z,7.28
2019-02-11T12:19:04.194Z,7.39
2019-02-11T12:20:04.368Z,7.33
2019-02-11T12:21:04.241Z,7.28
2019-02-11T12:22:04.220Z,7.21
2019-02-11T12:23:04.322Z,7.25
2019-02-11T12:24:04.215Z,7.33
2019-02-11T12:25:04.282Z,7.29
2019-02-11T12:26:04.180Z,7.29
2019-02-11T12:27:04.188Z,7.29
2019-02-11T12:28:04.217Z,7.36
2019-02-11T12:29:03.887Z,7.42
2019-02-11T12:30:04.496Z,7.47
2019-02-11T12:31:04.140Z,7.47
2019-02-11T12:32:04.200Z,7.43
2019-02-11T12:33:04.161Z,7.57
2019-02-11T12:34:03.871Z,7.43
2019-02-11T12:35:04.082Z,7.48
2019-02-11T12:36:04.095Z,7.53
2019-02-11T12:37:03.851Z,7.45
2019-02-11T12:38:03.887Z,7.57
2019-02-11T12:39:04.076Z,7.54
2019-02-11T12:40:04.076Z,7.54
2019-02-11T12:41:04.068Z,7.43
2019-02-11T12:42:04.054Z,7.48
2019-02-11T12:43:03.863Z,7.47
2019-02-11T12:44:04.037Z,7.47
2019-02-11T12:45:04.009Z,7.47
2019-02-11T12:46:04.007Z,7.53
2019-02-11T12:47:18.187Z,7.54
2019-02-11T12:48:03.994Z,7.58
2019-02-11T12:49:06.638Z,7.63
2019-02-11T12:50:03.741Z,7.6
2019-02-11T12:51:03.988Z,7.82
2019-02-11T12:52:03.990Z,7.79
2019-02-11T12:53:03.980Z,7.76
2019-02-11T12:54:03.698Z,7.83
2019-02-11T12:55:07.372Z,7.79
2019-02-11T12:56:07.283Z,7.72
2019-02-11T12:57:03.709Z,7.72
2019-02-11T12:58:03.907Z,7.7
2019-02-11T12:59:03.911Z,7.69
2019-02-11T13:00:03.912Z,7.82
2019-02-11T13:01:03.957Z,7.75
2019-02-11T13:02:03.681Z,7.8
2019-02-11T13:03:03.634Z,7.79
2019-02-11T13:04:03.872Z,7.77
2019-02-11T13:05:03.969Z,7.76
2019-02-11T13:06:03.865Z,7.75
2019-02-11T13:07:03.919Z,7.83
2019-02-11T13:08:03.651Z,7.91
2019-02-11T13:09:03.948Z,7.93
2019-02-11T13:10:04.269Z,7.91
2019-02-11T13:11:03.598Z,7.94
2019-02-11T13:12:03.844Z,7.98
2019-02-11T13:13:06.525Z,8.01
2019-02-11T13:14:03.823Z,8.12
2019-02-11T13:15:03.607Z,8.09
2019-02-11T13:16:07.605Z,8.06
2019-02-11T13:17:32.529Z,7.94
2019-02-11T13:18:04.472Z,7.94
2019-02-11T13:19:03.567Z,7.91
2019-02-11T13:20:14.751Z,7.94
2019-02-11T13:21:03.774Z,7.79